< Typhoon 201807 2018 Season Typhoon 201809 >
Typhoon 201808 (MARIA)
General InformationTrack Information on Google MapsDetailed Wind InformationForecast History on Google MapsAccess Analytics MapList of All Images || NewsDisaster Info.WeblogTrackbackTyphoon FrontTwiphoonTyphoon Now!Typhoon ImaginationJMA Disaster Info. XMLResourceGoogle EarthGE AnimationAtom FeedGeoJSON
Detalied Best Track (Time Zone = UTC)
Year Month Day Hour Lat. Long. Pressure (hPa) Wind (kt) Class Image Chart
2018 7 3 00 10.1 147.8 1004 0 2 Image Chart
2018 7 3 06 10.6 147.6 1004 0 2 Image Chart
2018 7 3 12 11.3 147.1 1004 0 2 Image Chart
2018 7 3 18 11.4 146.7 1002 0 2 Image Chart
2018 7 4 00 11.6 146.5 1002 0 2 Image Chart
2018 7 4 06 12.1 146.2 1002 0 2 Image Chart
2018 7 4 12 12.6 145.6 1000 35 3 Image Chart
2018 7 4 18 13.6 144.8 992 45 3 Image Chart
2018 7 5 00 14.1 144.1 990 50 4 Image Chart
2018 7 5 06 14.5 143.3 985 55 4 Image Chart
2018 7 5 12 14.8 142.7 970 70 5 Image Chart
2018 7 5 18 15.4 142.3 955 80 5 Image Chart
2018 7 6 00 16.0 142.0 950 85 5 Image Chart
2018 7 6 06 16.5 141.6 935 95 5 Image Chart
2018 7 6 12 16.7 141.3 925 100 5 Image Chart
2018 7 6 18 16.9 141.0 925 100 5 Image Chart
2018 7 7 00 17.1 140.8 935 95 5 Image Chart
2018 7 7 06 17.6 140.7 935 95 5 Image Chart
2018 7 7 12 18.0 140.3 935 95 5 Image Chart
2018 7 7 18 18.5 139.6 935 95 5 Image Chart
2018 7 8 00 19.0 138.9 935 95 5 Image Chart
2018 7 8 06 19.9 137.8 925 100 5 Image Chart
2018 7 8 12 20.5 136.6 925 100 5 Image Chart
2018 7 8 18 21.1 135.1 925 100 5 Image Chart
2018 7 9 00 21.8 133.5 915 105 5 Image Chart
2018 7 9 06 22.4 131.9 915 105 5 Image Chart
2018 7 9 12 23.0 130.3 915 105 5 Image Chart
2018 7 9 15 23.1 129.5 925 100 5 Image Chart
2018 7 9 18 23.4 128.7 935 95 5 Image Chart
2018 7 9 21 23.7 127.9 935 95 5 Image Chart
2018 7 10 00 24.0 127.2 940 90 5 Image Chart
2018 7 10 03 24.5 126.3 940 90 5 Image Chart
2018 7 10 06 24.7 125.5 940 90 5 Image Chart
2018 7 10 09 25.1 124.8 940 90 5 Image Chart
2018 7 10 12 25.3 124.0 950 85 5 Image Chart
2018 7 10 15 25.7 123.3 950 85 5 Image Chart
2018 7 10 18 26.2 122.3 950 85 5 Image Chart
2018 7 10 21 26.4 121.0 950 85 5 Image Chart
2018 7 11 00 26.4 120.0 950 85 5 Image Chart
2018 7 11 06 26.4 117.8 975 65 5 Image Chart
2018 7 11 12 26.7 116.7 992 45 3 Image Chart
2018 7 11 18 27.9 115.6 998 0 2 Image Chart
2018 7 12 00 28.6 114.4 1000 0 2 Image Chart
2018 7 12 06 29.3 113.7 1000 0 2 Image Chart
2018 7 12 12 30.2 112.7 1002 0 2 Image Chart
2018 7 12 18 30.6 111.8 1002 0 2 Image Chart
Japan Meteorological Agency Best Track Data | Correction Date : 2018-09-04
< Typhoon 201807 2018 Season Typhoon 201809 >

Help